createdAt,value
2022-11-05T00:00:08.573Z,97.14
2022-11-05T00:02:59.503Z,96.36
2022-11-05T00:05:50.680Z,96.91
2022-11-05T00:08:41.108Z,97.58
2022-11-05T00:11:17.919Z,97.34
2022-11-05T00:14:08.712Z,97.33
2022-11-05T00:16:46.868Z,97.51
2022-11-05T00:19:18.827Z,97.90
2022-11-05T00:22:08.963Z,98.06
2022-11-05T00:24:59.624Z,97.69
2022-11-05T00:27:34.304Z,97.59
2022-11-05T00:30:07.561Z,97.24
2022-11-05T00:32:40.316Z,97.14
2022-11-05T00:35:12.707Z,97.10
2022-11-05T00:37:49.801Z,96.90
2022-11-05T00:40:22.507Z,96.62
2022-11-05T00:43:15.161Z,96.98
2022-11-05T00:45:50.011Z,96.36
2022-11-05T00:48:41.174Z,96.93
2022-11-05T00:51:13.134Z,96.96
2022-11-05T00:53:45.110Z,96.61
2022-11-05T00:56:17.169Z,95.98
2022-11-05T00:58:49.055Z,96.02
2022-11-05T01:01:21.064Z,95.83
2022-11-05T01:03:53.327Z,96.16
2022-11-05T01:06:25.446Z,97.06
2022-11-05T01:08:57.349Z,96.41
2022-11-05T01:11:37.184Z,96.29
2022-11-05T01:14:13.994Z,96.04
2022-11-05T01:16:46.075Z,96.17
2022-11-05T01:19:18.070Z,96.27
2022-11-05T01:21:50.089Z,95.89
2022-11-05T01:24:22.008Z,96.31
2022-11-05T01:26:54.009Z,96.19
2022-11-05T01:29:26.044Z,96.04
2022-11-05T01:31:58.362Z,96.04
2022-11-05T01:34:30.388Z,96.30
2022-11-05T01:37:02.377Z,96.12
2022-11-05T01:39:34.383Z,95.73
2022-11-05T01:42:24.815Z,96.13
2022-11-05T01:45:16.889Z,95.71
2022-11-05T01:48:07.255Z,96.23
2022-11-05T01:50:43.598Z,95.74
2022-11-05T01:53:31.281Z,95.69
2022-11-05T01:56:32.528Z,95.85
2022-11-05T01:59:11.891Z,95.92
2022-11-05T02:01:45.228Z,95.54
2022-11-05T02:04:29.210Z,94.99
2022-11-05T02:07:01.971Z,95.26
2022-11-05T02:10:08.712Z,94.71
2022-11-05T02:12:46.576Z,94.96
2022-11-05T02:15:35.603Z,95.11
2022-11-05T02:18:49.091Z,95.54
2022-11-05T02:21:49.668Z,95.48
2022-11-05T02:25:05.204Z,95.39
2022-11-05T02:28:09.647Z,95.02
2022-11-05T02:30:58.359Z,95.84
2022-11-05T02:33:43.018Z,95.93
2022-11-05T02:36:26.798Z,96.13
2022-11-05T02:39:10.658Z,95.82
2022-11-05T02:42:34.246Z,96.35
2022-11-05T02:45:46.784Z,96.25
2022-11-05T02:48:37.625Z,96.36
2022-11-05T02:51:41.059Z,96.26
2022-11-05T02:54:30.926Z,96.67
2022-11-05T02:57:05.207Z,96.44
2022-11-05T02:59:37.118Z,96.42
2022-11-05T03:02:09.297Z,96.53
2022-11-05T03:04:41.501Z,96.25
2022-11-05T03:07:39.619Z,96.15
2022-11-05T03:10:19.130Z,97.06
2022-11-05T03:13:26.401Z,97.07
2022-11-05T03:16:04.777Z,97.28
2022-11-05T03:19:07.145Z,96.60
2022-11-05T03:22:02.526Z,96.19
2022-11-05T03:24:41.500Z,96.54
2022-11-05T03:27:20.085Z,96.46
2022-11-05T03:29:58.778Z,96.41
2022-11-05T03:32:34.315Z,96.39
2022-11-05T03:35:15.557Z,95.98
2022-11-05T03:37:51.422Z,96.04
2022-11-05T03:40:25.388Z,95.96
2022-11-05T03:42:59.621Z,95.09
2022-11-05T03:45:38.886Z,95.54
2022-11-05T03:48:14.138Z,94.73
2022-11-05T03:51:05.255Z,94.55
2022-11-05T03:53:51.810Z,95.19
2022-11-05T03:56:59.440Z,94.56
2022-11-05T03:59:32.731Z,94.45
2022-11-05T04:02:04.774Z,95.20
2022-11-05T04:04:37.178Z,94.69
2022-11-05T04:07:32.179Z,94.67
2022-11-05T04:10:23.692Z,95.12
2022-11-05T04:13:14.217Z,95.15
2022-11-05T04:16:05.261Z,95.70
2022-11-05T04:18:37.640Z,95.62
2022-11-05T04:21:29.604Z,95.54
2022-11-05T04:24:10.277Z,95.72
2022-11-05T04:26:43.885Z,95.65
2022-11-05T04:29:34.829Z,95.55
2022-11-05T04:32:06.791Z,95.46
2022-11-05T04:34:38.927Z,95.34
2022-11-05T04:37:10.928Z,94.93
2022-11-05T04:39:42.975Z,94.65
2022-11-05T04:42:15.191Z,94.49
2022-11-05T04:44:47.221Z,94.79
2022-11-05T04:47:19.337Z,94.86
2022-11-05T04:49:51.331Z,94.95
2022-11-05T04:52:23.270Z,95.39
2022-11-05T04:54:55.163Z,95.26
2022-11-05T04:57:27.257Z,95.91
2022-11-05T04:59:59.295Z,96.02
2022-11-05T05:02:31.268Z,96.40
2022-11-05T05:05:04.175Z,96.58
2022-11-05T05:07:36.395Z,96.78
2022-11-05T05:10:10.115Z,96.92
2022-11-05T05:12:42.133Z,97.13
2022-11-05T05:15:14.112Z,96.66
2022-11-05T05:17:53.285Z,96.26
2022-11-05T05:21:03.485Z,96.13
2022-11-05T05:23:35.440Z,96.53
2022-11-05T05:26:07.371Z,96.64
2022-11-05T05:28:39.410Z,96.67
2022-11-05T05:31:11.595Z,96.75
2022-11-05T05:33:43.731Z,97.03
2022-11-05T05:36:15.633Z,97.23
2022-11-05T05:38:47.825Z,96.92
2022-11-05T05:41:20.336Z,97.19
2022-11-05T05:43:52.501Z,96.86
2022-11-05T05:46:24.564Z,97.61
2022-11-05T05:48:56.667Z,97.62
2022-11-05T05:51:28.769Z,97.85
2022-11-05T05:54:00.729Z,98.02
2022-11-05T05:56:32.783Z,98.16
2022-11-05T05:59:06.475Z,97.98
2022-11-05T06:01:38.872Z,97.92
2022-11-05T06:04:10.973Z,98.02
2022-11-05T06:06:42.936Z,98.56
2022-11-05T06:09:15.161Z,98.84
2022-11-05T06:11:47.220Z,99.45
2022-11-05T06:14:19.154Z,99.49
2022-11-05T06:16:51.248Z,99.55
2022-11-05T06:19:23.306Z,99.29
2022-11-05T06:21:55.402Z,99.69
2022-11-05T06:24:27.363Z,99.25
2022-11-05T06:26:59.352Z,98.83
2022-11-05T06:29:31.294Z,99.20
2022-11-05T06:32:03.459Z,99.66
2022-11-05T06:34:36.982Z,99.00
2022-11-05T06:37:08.978Z,99.18
2022-11-05T06:39:40.988Z,99.86
2022-11-05T06:42:18.477Z,99.58
2022-11-05T06:44:52.143Z,99.34
2022-11-05T06:47:24.105Z,99.44
2022-11-05T06:49:57.508Z,99.65
2022-11-05T06:52:31.349Z,99.98
2022-11-05T06:55:03.967Z,99.86
2022-11-05T06:57:38.826Z,99.50
2022-11-05T07:00:11.563Z,99.30
2022-11-05T07:02:43.736Z,99.65
2022-11-05T07:05:16.588Z,100.00
2022-11-05T07:07:48.574Z,100.00
2022-11-05T07:10:20.782Z,100.00
2022-11-05T07:12:52.719Z,100.00
2022-11-05T07:15:24.938Z,99.94
2022-11-05T07:17:59.074Z,100.00
2022-11-05T07:20:34.182Z,100.00
2022-11-05T07:23:12.155Z,99.90
2022-11-05T07:25:44.886Z,100.00
2022-11-05T07:28:16.806Z,99.83
2022-11-05T07:30:48.714Z,99.55
2022-11-05T07:33:20.685Z,99.10
2022-11-05T07:35:52.655Z,99.32
2022-11-05T07:38:25.929Z,99.46
2022-11-05T07:41:00.500Z,99.14
2022-11-05T07:43:32.522Z,98.84
2022-11-05T07:46:04.450Z,97.85
2022-11-05T07:48:37.429Z,97.75
2022-11-05T07:51:09.460Z,97.42
2022-11-05T07:53:45.298Z,96.77
2022-11-05T07:56:17.966Z,96.67
2022-11-05T07:58:50.062Z,96.62
2022-11-05T08:01:22.320Z,95.76
2022-11-05T08:03:54.378Z,96.07
2022-11-05T08:06:26.382Z,96.29
2022-11-05T08:08:58.274Z,96.55
2022-11-05T08:11:30.363Z,95.97
2022-11-05T08:14:02.296Z,95.85
2022-11-05T08:16:34.440Z,95.59
2022-11-05T08:19:06.514Z,95.14
2022-11-05T08:21:38.492Z,94.66
2022-11-05T08:24:10.602Z,94.45
2022-11-05T08:26:42.583Z,95.12
2022-11-05T08:29:14.583Z,94.14
2022-11-05T08:31:46.489Z,93.55
2022-11-05T08:34:18.767Z,92.98
2022-11-05T08:36:50.775Z,92.31
2022-11-05T08:39:22.765Z,90.83
2022-11-05T08:41:54.921Z,89.93
2022-11-05T08:44:26.842Z,89.36
2022-11-05T08:46:59.554Z,90.29
2022-11-05T08:49:31.458Z,90.27
2022-11-05T08:52:03.877Z,89.82
2022-11-05T08:54:36.165Z,90.24
2022-11-05T08:57:08.134Z,89.95
2022-11-05T08:59:40.014Z,89.78
2022-11-05T09:02:12.227Z,89.81
2022-11-05T09:04:44.990Z,89.84
2022-11-05T09:07:16.983Z,89.63
2022-11-05T09:09:48.875Z,89.18
2022-11-05T09:12:20.867Z,89.26
2022-11-05T09:14:52.769Z,89.09
2022-11-05T09:17:24.742Z,88.18
2022-11-05T09:19:56.800Z,88.08
2022-11-05T09:22:29.580Z,86.90
2022-11-05T09:25:01.540Z,86.65
2022-11-05T09:27:33.799Z,86.37
2022-11-05T09:30:06.482Z,86.11
2022-11-05T09:32:38.858Z,84.91
2022-11-05T09:35:10.863Z,85.01
2022-11-05T09:37:42.976Z,83.91
2022-11-05T09:40:18.319Z,84.18
2022-11-05T09:42:53.932Z,82.66
2022-11-05T09:45:28.800Z,82.61
2022-11-05T09:48:10.402Z,82.78
2022-11-05T09:50:46.641Z,83.25
2022-11-05T09:53:20.787Z,82.89
2022-11-05T09:55:57.284Z,82.86
2022-11-05T09:58:43.753Z,82.00
2022-11-05T10:01:24.190Z,81.58
2022-11-05T10:04:00.750Z,80.12
2022-11-05T10:06:32.723Z,80.28
2022-11-05T10:09:18.112Z,79.19
2022-11-05T10:12:20.454Z,78.76
2022-11-05T10:15:09.632Z,78.72
2022-11-05T10:17:49.737Z,76.87
2022-11-05T10:20:35.569Z,76.53
2022-11-05T10:23:18.018Z,75.77
2022-11-05T10:26:15.003Z,75.94
2022-11-05T10:28:47.670Z,75.78
2022-11-05T10:31:22.062Z,76.76
2022-11-05T10:33:57.010Z,76.74
2022-11-05T10:36:36.401Z,75.26
2022-11-05T10:39:22.166Z,75.69
2022-11-05T10:42:55.360Z,75.73
2022-11-05T10:45:58.668Z,75.64
2022-11-05T10:48:52.157Z,74.52
2022-11-05T10:51:24.391Z,74.16
2022-11-05T10:54:06.506Z,74.70
2022-11-05T10:56:41.080Z,76.64
2022-11-05T10:59:29.520Z,76.54
2022-11-05T11:02:30.354Z,76.42
2022-11-05T11:05:02.382Z,76.18
2022-11-05T11:07:34.683Z,75.91
2022-11-05T11:10:06.864Z,75.50
2022-11-05T11:12:43.363Z,74.54
2022-11-05T11:15:20.255Z,75.20
2022-11-05T11:17:52.685Z,74.65
2022-11-05T11:20:32.193Z,75.14
2022-11-05T11:23:12.223Z,75.76
2022-11-05T11:26:08.437Z,74.69
2022-11-05T11:28:59.499Z,74.52
2022-11-05T11:31:33.805Z,74.48
2022-11-05T11:34:34.052Z,74.56
2022-11-05T11:37:19.346Z,74.30
2022-11-05T11:40:20.266Z,74.77
2022-11-05T11:42:57.208Z,74.39
2022-11-05T11:45:52.259Z,73.88
2022-11-05T11:48:29.828Z,73.30
2022-11-05T11:51:40.604Z,73.72
2022-11-05T11:54:23.909Z,73.89
2022-11-05T11:56:59.154Z,74.12
2022-11-05T12:00:01.927Z,73.87
2022-11-05T12:02:50.235Z,73.87
2022-11-05T12:05:42.324Z,73.63
2022-11-05T12:08:44.971Z,72.43
2022-11-05T12:11:38.239Z,72.25
2022-11-05T12:14:50.112Z,71.59
2022-11-05T12:18:04.966Z,71.79
2022-11-05T12:20:58.376Z,71.18
2022-11-05T12:23:56.025Z,71.96
2022-11-05T12:27:01.914Z,71.76
2022-11-05T12:30:05.413Z,71.21
2022-11-05T12:33:15.276Z,71.33
2022-11-05T12:36:06.990Z,71.98
2022-11-05T12:39:00.043Z,71.77
2022-11-05T12:41:51.036Z,71.68
2022-11-05T12:44:41.322Z,71.38
2022-11-05T12:48:10.590Z,71.35
2022-11-05T12:50:55.728Z,70.49
2022-11-05T12:54:08.939Z,70.18
2022-11-05T12:56:52.764Z,71.17
2022-11-05T12:59:39.793Z,71.36
2022-11-05T13:02:33.282Z,71.90
2022-11-05T13:05:33.966Z,70.83
2022-11-05T13:08:08.671Z,70.19
2022-11-05T13:10:51.830Z,70.52
2022-11-05T13:14:06.173Z,70.28
2022-11-05T13:17:03.950Z,70.73
2022-11-05T13:20:22.053Z,70.45
2022-11-05T13:23:07.221Z,69.60
2022-11-05T13:25:46.691Z,69.39
2022-11-05T13:28:35.950Z,69.72
2022-11-05T13:31:16.749Z,70.16
2022-11-05T13:33:52.168Z,70.76
2022-11-05T13:37:15.747Z,70.44
2022-11-05T13:40:03.683Z,70.88
2022-11-05T13:43:13.134Z,71.33
2022-11-05T13:46:10.511Z,71.63
2022-11-05T13:49:03.696Z,71.61
2022-11-05T13:52:28.828Z,70.54
2022-11-05T13:55:21.919Z,71.33
2022-11-05T13:58:15.736Z,71.35
2022-11-05T14:01:24.993Z,70.90
2022-11-05T14:03:57.354Z,71.36
2022-11-05T14:06:34.723Z,71.27
2022-11-05T14:09:12.496Z,71.64
2022-11-05T14:11:52.834Z,71.86
2022-11-05T14:14:28.001Z,71.96
2022-11-05T14:17:09.031Z,71.80
2022-11-05T14:20:03.173Z,72.40
2022-11-05T14:22:40.993Z,72.74
2022-11-05T14:25:18.933Z,73.60
2022-11-05T14:27:53.747Z,73.05
2022-11-05T14:30:48.936Z,73.03
2022-11-05T14:33:26.871Z,73.81
2022-11-05T14:36:30.872Z,74.11
2022-11-05T14:39:30.572Z,74.10
2022-11-05T14:42:19.900Z,74.18
2022-11-05T14:45:28.585Z,75.38
2022-11-05T14:48:22.057Z,75.26
2022-11-05T14:50:55.115Z,75.63
2022-11-05T14:53:39.934Z,75.60
2022-11-05T14:56:18.986Z,75.37
2022-11-05T14:59:26.118Z,74.77
2022-11-05T15:02:12.470Z,74.58
2022-11-05T15:04:48.075Z,75.17
2022-11-05T15:07:23.437Z,75.16
2022-11-05T15:10:15.918Z,74.80
2022-11-05T15:13:04.067Z,75.10
2022-11-05T15:15:44.351Z,75.26
2022-11-05T15:18:31.934Z,75.99
2022-11-05T15:21:05.032Z,76.43
2022-11-05T15:23:43.195Z,76.71
2022-11-05T15:26:41.205Z,76.58
2022-11-05T15:29:22.308Z,76.80
2022-11-05T15:31:54.804Z,76.90
2022-11-05T15:34:35.780Z,76.94
2022-11-05T15:37:13.775Z,77.16
2022-11-05T15:39:48.930Z,77.20
2022-11-05T15:42:28.084Z,77.23
2022-11-05T15:45:00.669Z,76.76
2022-11-05T15:47:36.715Z,76.95
2022-11-05T15:50:15.576Z,77.44
2022-11-05T15:52:54.055Z,77.54
2022-11-05T15:55:26.573Z,77.80
2022-11-05T15:58:06.487Z,78.13
2022-11-05T16:00:38.542Z,78.40
2022-11-05T16:03:22.620Z,78.20
2022-11-05T16:05:55.328Z,78.01
2022-11-05T16:08:29.986Z,77.88
2022-11-05T16:11:02.397Z,78.27
2022-11-05T16:13:41.264Z,78.35
2022-11-05T16:16:18.354Z,78.12
2022-11-05T16:18:50.839Z,78.20
2022-11-05T16:21:23.616Z,78.38
2022-11-05T16:23:59.231Z,78.54
2022-11-05T16:29:33.959Z,78.10
2022-11-05T16:32:30.820Z,78.02
2022-11-05T16:35:06.702Z,78.29
2022-11-05T16:37:41.745Z,78.32
2022-11-05T16:40:18.486Z,78.28
2022-11-05T16:42:53.914Z,78.44
2022-11-05T16:45:26.128Z,78.12
2022-11-05T16:47:58.301Z,78.56
2022-11-05T16:50:33.631Z,78.43
2022-11-05T16:53:05.582Z,78.60
2022-11-05T16:55:40.499Z,78.80
2022-11-05T16:58:32.211Z,78.91
2022-11-05T17:01:08.517Z,79.12
2022-11-05T17:03:40.663Z,78.81
2022-11-05T17:06:15.380Z,78.58
2022-11-05T17:08:48.696Z,78.41
2022-11-05T17:11:21.904Z,79.06
2022-11-05T17:13:53.930Z,79.19
2022-11-05T17:16:26.902Z,78.83
2022-11-05T17:18:58.824Z,79.10
2022-11-05T17:21:30.836Z,79.64
2022-11-05T17:24:02.779Z,79.70
2022-11-05T17:26:34.899Z,79.52
2022-11-05T17:29:06.822Z,79.59
2022-11-05T17:31:42.396Z,79.46
2022-11-05T17:34:14.343Z,80.00
2022-11-05T17:36:46.349Z,79.90
2022-11-05T17:39:18.284Z,79.96
2022-11-05T17:41:50.312Z,79.91
2022-11-05T17:44:22.735Z,79.94
2022-11-05T17:46:54.901Z,80.23
2022-11-05T17:49:26.873Z,79.67
2022-11-05T17:51:58.907Z,79.77
2022-11-05T17:54:30.880Z,79.26
2022-11-05T17:57:04.824Z,79.04
2022-11-05T17:59:36.829Z,78.97
2022-11-05T18:02:12.676Z,79.45
2022-11-05T18:04:45.179Z,79.07
2022-11-05T18:07:17.922Z,78.86
2022-11-05T18:09:49.890Z,78.88
2022-11-05T18:12:21.855Z,78.64
2022-11-05T18:14:53.781Z,78.92
2022-11-05T18:17:26.173Z,78.97
2022-11-05T18:19:58.456Z,78.86
2022-11-05T18:22:30.688Z,78.55
2022-11-05T18:25:02.834Z,78.00
2022-11-05T18:27:35.367Z,77.95
2022-11-05T18:30:08.768Z,77.88
2022-11-05T18:32:40.884Z,77.38
2022-11-05T18:35:14.564Z,76.75
2022-11-05T18:37:46.554Z,76.53
2022-11-05T18:40:18.537Z,76.21
2022-11-05T18:42:50.488Z,76.31
2022-11-05T18:45:26.968Z,76.47
2022-11-05T18:48:02.385Z,75.60
2022-11-05T18:50:34.450Z,75.49
2022-11-05T18:53:06.542Z,76.02
2022-11-05T18:55:41.903Z,75.95
2022-11-05T18:58:14.785Z,75.26
2022-11-05T19:00:47.131Z,75.30
2022-11-05T19:03:19.171Z,75.36
2022-11-05T19:05:51.110Z,75.52
2022-11-05T19:08:23.151Z,75.33
2022-11-05T19:10:56.640Z,75.35
2022-11-05T19:13:28.565Z,75.38
2022-11-05T19:16:00.572Z,75.27
2022-11-05T19:18:32.613Z,75.79
2022-11-05T19:21:09.744Z,75.90
2022-11-05T19:23:41.962Z,75.99
2022-11-05T19:26:23.006Z,76.69
2022-11-05T19:29:01.927Z,77.37
2022-11-05T19:31:34.420Z,77.83
2022-11-05T19:34:06.632Z,78.36
2022-11-05T19:36:38.567Z,78.50
2022-11-05T19:39:14.420Z,78.86
2022-11-05T19:41:48.007Z,78.32
2022-11-05T19:44:20.189Z,78.62
2022-11-05T19:46:52.176Z,79.01
2022-11-05T19:49:24.499Z,79.50
2022-11-05T19:51:56.750Z,79.62
2022-11-05T19:54:28.819Z,79.35
2022-11-05T19:57:01.973Z,79.54
2022-11-05T19:59:34.031Z,79.68
2022-11-05T20:02:09.385Z,79.39
2022-11-05T20:04:44.416Z,79.73
2022-11-05T20:07:16.445Z,80.16
2022-11-05T20:09:48.814Z,79.96
2022-11-05T20:12:20.858Z,79.99
2022-11-05T20:14:52.804Z,80.04
2022-11-05T20:17:24.866Z,80.00
2022-11-05T20:19:56.950Z,80.32
2022-11-05T20:22:28.863Z,80.33
2022-11-05T20:25:00.922Z,80.66
2022-11-05T20:27:32.914Z,80.10
2022-11-05T20:30:06.309Z,80.01
2022-11-05T20:32:38.294Z,80.68
2022-11-05T20:35:10.505Z,80.51
2022-11-05T20:37:42.531Z,81.04
2022-11-05T20:40:15.229Z,81.59
2022-11-05T20:42:47.179Z,80.69
2022-11-05T20:45:19.088Z,80.33
2022-11-05T20:47:51.261Z,80.40
2022-11-05T20:50:23.332Z,80.25
2022-11-05T20:52:55.384Z,80.36
2022-11-05T20:55:27.472Z,80.43
2022-11-05T20:58:00.084Z,80.47
2022-11-05T21:00:32.115Z,80.31
2022-11-05T21:03:04.984Z,80.02
2022-11-05T21:05:36.888Z,79.71
2022-11-05T21:08:08.890Z,80.35
2022-11-05T21:10:41.429Z,80.57
2022-11-05T21:13:14.614Z,80.30
2022-11-05T21:15:52.941Z,80.52
2022-11-05T21:18:29.048Z,80.69
2022-11-05T21:21:05.149Z,80.95
2022-11-05T21:23:37.468Z,80.75
2022-11-05T21:26:15.032Z,80.63
2022-11-05T21:28:47.012Z,81.37
2022-11-05T21:31:19.113Z,80.64
2022-11-05T21:33:54.997Z,80.67
2022-11-05T21:36:27.477Z,81.10
2022-11-05T21:38:59.565Z,81.40
2022-11-05T21:41:31.567Z,81.68
2022-11-05T21:44:04.298Z,81.60
2022-11-05T21:46:37.827Z,81.81
2022-11-05T21:49:09.803Z,82.00
2022-11-05T21:52:00.353Z,82.28
2022-11-05T21:54:51.224Z,82.44
2022-11-05T21:57:41.775Z,82.53
2022-11-05T22:00:14.115Z,82.49
2022-11-05T22:02:46.191Z,82.52
2022-11-05T22:05:18.507Z,82.76
2022-11-05T22:07:50.599Z,82.54
2022-11-05T22:10:22.749Z,82.26
2022-11-05T22:12:54.972Z,82.21
2022-11-05T22:15:26.941Z,82.04
2022-11-05T22:17:58.990Z,81.96
2022-11-05T22:20:30.953Z,82.13
2022-11-05T22:23:06.266Z,82.22
2022-11-05T22:25:40.650Z,81.55
2022-11-05T22:28:15.668Z,82.50
2022-11-05T22:30:47.768Z,82.71
2022-11-05T22:33:19.745Z,82.61
2022-11-05T22:35:51.642Z,82.40
2022-11-05T22:38:23.658Z,81.55
2022-11-05T22:40:55.661Z,81.75
2022-11-05T22:43:27.632Z,81.34
2022-11-05T22:46:05.806Z,81.71
2022-11-05T22:48:39.919Z,81.44
2022-11-05T22:51:19.263Z,81.79
2022-11-05T22:53:52.431Z,81.77
2022-11-05T22:56:28.651Z,81.93
2022-11-05T22:59:00.857Z,81.99
2022-11-05T23:01:32.918Z,82.41
2022-11-05T23:04:05.230Z,81.95
2022-11-05T23:06:55.890Z,81.77
2022-11-05T23:09:50.500Z,81.86
2022-11-05T23:12:32.464Z,81.78
2022-11-05T23:15:07.486Z,81.87
2022-11-05T23:17:58.370Z,81.40
2022-11-05T23:20:48.688Z,81.18
2022-11-05T23:23:38.883Z,81.08
2022-11-05T23:26:29.256Z,81.24
2022-11-05T23:29:01.069Z,81.37
2022-11-05T23:31:51.383Z,80.58
2022-11-05T23:34:23.315Z,80.76
2022-11-05T23:37:13.703Z,81.51
2022-11-05T23:39:45.711Z,81.65
2022-11-05T23:42:36.469Z,81.31
2022-11-05T23:45:28.230Z,81.61
2022-11-05T23:48:17.066Z,81.53
2022-11-05T23:50:56.466Z,81.72
2022-11-05T23:53:30.775Z,81.52
2022-11-05T23:56:10.852Z,80.92
2022-11-05T23:58:43.184Z,80.96
